Time,TemperatureF,DewpointF,PressureIn,WindDirection,WindDirectionDegrees,WindSpeedMPH,WindSpeedGustMPH,Humidity,HourlyPrecipIn,Conditions,Clouds,dailyrainin,SoftwareType,DateUTC
2014-01-17 00:01:00,26.8,24.3,29.81,North,7,0.0,0.0,90,0.00,,,0.00,meteohub,2014-01-17 05:01:00,
2014-01-17 00:02:00,26.8,24.3,29.81,North,8,0.0,0.0,90,0.00,,,0.00,meteohub,2014-01-17 05:02:00,
2014-01-17 00:03:00,26.8,24.3,29.78,North,7,0.0,0.0,90,0.00,,,0.00,meteohub,2014-01-17 05:03:00,
2014-01-17 00:05:00,26.6,24.3,29.78,North,7,0.0,0.0,91,0.00,,,0.00,meteohub,2014-01-17 05:05:00,
2014-01-17 00:10:00,26.4,24.1,29.78,North,7,0.0,0.0,91,0.00,,,0.00,meteohub,2014-01-17 05:10:00,
2014-01-17 00:15:00,26.2,23.9,29.78,North,8,0.0,0.0,91,0.00,,,0.00,meteohub,2014-01-17 05:15:00,
2014-01-17 00:18:00,26.1,23.7,29.78,North,7,0.0,0.0,91,0.00,,,0.00,meteohub,2014-01-17 05:18:00,
2014-01-17 00:23:00,26.1,23.7,29.78,North,7,0.0,0.0,91,0.00,,,0.00,meteohub,2014-01-17 05:23:00,
2014-01-17 00:28:00,26.2,23.9,29.78,North,7,0.0,0.0,91,0.00,,,0.00,meteohub,2014-01-17 05:28:00,
2014-01-17 00:33:00,26.2,23.9,29.78,North,7,0.0,0.0,91,0.00,,,0.00,meteohub,2014-01-17 05:33:00,
2014-01-17 00:38:00,26.2,23.9,29.78,North,8,0.0,0.0,91,0.00,,,0.00,meteohub,2014-01-17 05:38:00,
2014-01-17 00:44:00,26.2,23.9,29.78,North,7,0.0,0.0,91,0.00,,,0.00,meteohub,2014-01-17 05:44:00,
2014-01-17 00:49:00,26.1,23.7,29.78,North,7,0.0,0.0,91,0.00,,,0.00,meteohub,2014-01-17 05:49:00,
2014-01-17 00:54:00,26.1,23.7,29.78,North,7,0.0,0.0,91,0.00,,,0.00,meteohub,2014-01-17 05:54:00,
2014-01-17 00:59:00,26.1,23.7,29.78,North,7,0.0,0.0,91,0.00,,,0.00,meteohub,2014-01-17 05:59:00,
2014-01-17 01:04:00,25.9,23.5,29.78,North,7,0.0,0.0,91,0.00,,,0.00,meteohub,2014-01-17 06:04:00,
2014-01-17 01:09:00,26.1,23.7,29.78,North,8,0.0,0.0,91,0.00,,,0.00,meteohub,2014-01-17 06:09:00,
2014-01-17 01:14:00,25.9,23.9,29.78,North,7,0.0,0.0,92,0.00,,,0.00,meteohub,2014-01-17 06:14:00,
2014-01-17 01:19:00,25.5,23.5,29.78,North,7,0.0,0.0,92,0.00,,,0.00,meteohub,2014-01-17 06:19:00,
2014-01-17 01:24:00,25.5,23.5,29.78,North,7,0.0,0.0,92,0.00,,,0.00,meteohub,2014-01-17 06:24:00,
2014-01-17 01:29:00,25.3,23.4,29.78,North,7,0.0,0.0,92,0.00,,,0.00,meteohub,2014-01-17 06:29:00,
2014-01-17 01:34:00,25.3,23.4,29.81,North,8,0.0,0.0,92,0.00,,,0.00,meteohub,2014-01-17 06:34:00,
2014-01-17 01:40:00,25.2,23.2,29.81,North,8,0.0,0.0,92,0.00,,,0.00,meteohub,2014-01-17 06:40:00,
2014-01-17 01:45:00,25.2,23.2,29.81,North,7,0.0,0.0,92,0.00,,,0.00,meteohub,2014-01-17 06:45:00,
2014-01-17 01:50:00,25.0,23.0,29.81,North,8,0.0,0.0,92,0.00,,,0.00,meteohub,2014-01-17 06:50:00,
2014-01-17 01:55:00,25.2,23.2,29.81,North,8,0.0,0.0,92,0.00,,,0.00,meteohub,2014-01-17 06:55:00,
2014-01-17 02:00:00,24.8,22.8,29.81,North,7,0.0,0.0,92,0.00,,,0.00,meteohub,2014-01-17 07:00:00,
2014-01-17 02:05:00,24.8,22.8,29.81,North,7,0.0,0.0,92,0.00,,,0.00,meteohub,2014-01-17 07:05:00,
2014-01-17 02:10:00,24.6,22.6,29.81,North,7,0.0,0.0,92,0.00,,,0.00,meteohub,2014-01-17 07:10:00,
2014-01-17 02:15:00,24.6,22.6,29.81,North,7,0.0,0.0,92,0.00,,,0.00,meteohub,2014-01-17 07:15:00,
2014-01-17 02:20:00,24.6,22.6,29.81,North,7,0.0,0.0,92,0.00,,,0.00,meteohub,2014-01-17 07:20:00,
2014-01-17 02:25:00,24.6,22.8,29.81,North,7,0.0,0.0,93,0.00,,,0.00,meteohub,2014-01-17 07:25:00,
2014-01-17 02:30:00,24.4,22.5,29.81,North,8,0.0,0.0,92,0.00,,,0.00,meteohub,2014-01-17 07:30:00,
2014-01-17 02:35:00,24.4,22.6,29.78,North,7,0.0,0.0,93,0.00,,,0.00,meteohub,2014-01-17 07:35:00,
2014-01-17 02:40:00,24.4,22.6,29.78,North,7,0.0,0.0,93,0.00,,,0.00,meteohub,2014-01-17 07:40:00,
2014-01-17 02:45:00,24.4,22.6,29.78,North,7,0.0,0.0,93,0.00,,,0.00,meteohub,2014-01-17 07:45:00,
2014-01-17 02:51:00,24.6,22.8,29.81,North,8,0.0,0.0,93,0.00,,,0.00,meteohub,2014-01-17 07:51:00,
2014-01-17 02:56:00,24.4,22.6,29.81,North,7,0.0,0.0,93,0.00,,,0.00,meteohub,2014-01-17 07:56:00,
2014-01-17 03:01:00,24.3,22.5,29.81,North,7,0.0,0.0,93,0.00,,,0.00,meteohub,2014-01-17 08:01:00,
2014-01-17 03:06:00,23.7,21.9,29.82,North,7,0.0,0.0,93,0.00,,,0.00,meteohub,2014-01-17 08:06:00,
2014-01-17 03:11:00,23.5,21.7,29.82,North,7,0.0,0.0,93,0.00,,,0.00,meteohub,2014-01-17 08:11:00,
2014-01-17 03:16:00,23.5,21.7,29.82,North,7,0.0,0.0,93,0.00,,,0.00,meteohub,2014-01-17 08:16:00,
2014-01-17 03:21:00,23.7,21.9,29.82,North,8,0.0,0.0,93,0.00,,,0.00,meteohub,2014-01-17 08:21:00,
2014-01-17 03:26:00,23.7,21.9,29.82,North,7,0.0,0.0,93,0.00,,,0.00,meteohub,2014-01-17 08:26:00,
2014-01-17 03:31:00,23.9,22.1,29.81,North,7,0.0,0.0,93,0.00,,,0.00,meteohub,2014-01-17 08:31:00,
2014-01-17 03:36:00,23.9,22.1,29.81,North,7,0.0,0.0,93,0.00,,,0.00,meteohub,2014-01-17 08:36:00,
2014-01-17 03:41:00,23.9,22.1,29.81,North,7,0.0,0.0,93,0.00,,,0.00,meteohub,2014-01-17 08:41:00,
2014-01-17 03:46:00,23.9,22.1,29.81,North,7,0.0,0.0,93,0.00,,,0.00,meteohub,2014-01-17 08:46:00,
2014-01-17 03:51:00,23.9,22.1,29.81,North,7,0.0,0.0,93,0.00,,,0.00,meteohub,2014-01-17 08:51:00,
2014-01-17 03:57:00,23.7,21.9,29.82,North,7,0.0,0.0,93,0.00,,,0.00,meteohub,2014-01-17 08:57:00,
2014-01-17 04:02:00,23.5,21.7,29.82,North,8,0.0,0.0,93,0.00,,,0.00,meteohub,2014-01-17 09:02:00,
2014-01-17 04:07:00,23.4,21.6,29.82,North,7,0.0,0.0,93,0.00,,,0.00,meteohub,2014-01-17 09:07:00,
2014-01-17 04:12:00,23.4,21.6,29.82,North,7,0.0,0.0,93,0.00,,,0.00,meteohub,2014-01-17 09:12:00,
2014-01-17 04:17:00,23.5,21.7,29.82,North,8,0.0,0.0,93,0.00,,,0.00,meteohub,2014-01-17 09:17:00,
2014-01-17 04:22:00,23.4,21.6,29.82,North,7,0.0,0.0,93,0.00,,,0.00,meteohub,2014-01-17 09:22:00,
2014-01-17 04:27:00,23.0,21.6,29.82,North,7,0.0,0.0,94,0.00,,,0.00,meteohub,2014-01-17 09:27:00,
2014-01-17 04:32:00,22.8,21.4,29.82,North,7,0.0,0.0,94,0.00,,,0.00,meteohub,2014-01-17 09:32:00,
2014-01-17 04:37:00,22.8,21.4,29.82,North,7,0.0,0.0,94,0.00,,,0.00,meteohub,2014-01-17 09:37:00,
2014-01-17 04:42:00,22.8,21.4,29.82,North,7,0.0,0.0,94,0.00,,,0.00,meteohub,2014-01-17 09:42:00,
2014-01-17 04:47:00,22.5,21.0,29.82,North,7,0.0,0.0,94,0.00,,,0.00,meteohub,2014-01-17 09:47:00,
2014-01-17 04:52:00,22.6,21.2,29.82,North,7,0.0,0.0,94,0.00,,,0.00,meteohub,2014-01-17 09:52:00,
2014-01-17 04:57:00,23.0,21.6,29.82,North,8,0.0,0.0,94,0.00,,,0.00,meteohub,2014-01-17 09:57:00,
2014-01-17 05:02:00,23.2,21.7,29.82,North,7,0.0,0.0,94,0.00,,,0.00,meteohub,2014-01-17 10:02:00,
2014-01-17 05:07:00,23.2,21.7,29.82,North,7,0.0,0.0,94,0.00,,,0.00,meteohub,2014-01-17 10:07:00,
2014-01-17 05:12:00,22.8,21.4,29.82,North,7,0.0,0.0,94,0.00,,,0.00,meteohub,2014-01-17 10:12:00,
2014-01-17 05:17:00,22.6,21.2,29.82,North,8,0.0,0.0,94,0.00,,,0.00,meteohub,2014-01-17 10:17:00,
2014-01-17 05:22:00,22.6,21.2,29.82,North,7,0.0,0.0,94,0.00,,,0.00,meteohub,2014-01-17 10:22:00,
2014-01-17 05:27:00,22.6,21.2,29.82,North,7,0.0,0.0,94,0.00,,,0.00,meteohub,2014-01-17 10:27:00,
2014-01-17 05:32:00,22.6,21.2,29.82,North,7,0.0,0.0,94,0.00,,,0.00,meteohub,2014-01-17 10:32:00,
2014-01-17 05:37:00,22.6,21.2,29.82,North,7,0.0,0.0,94,0.00,,,0.00,meteohub,2014-01-17 10:37:00,
2014-01-17 05:42:00,22.6,21.2,29.82,North,7,0.0,0.0,94,0.00,,,0.00,meteohub,2014-01-17 10:42:00,
2014-01-17 05:47:00,22.5,21.0,29.82,North,7,0.0,0.0,94,0.00,,,0.00,meteohub,2014-01-17 10:47:00,
2014-01-17 05:52:00,22.6,21.2,29.82,North,7,0.0,0.0,94,0.00,,,0.00,meteohub,2014-01-17 10:52:00,
2014-01-17 05:57:00,22.6,21.2,29.82,North,8,0.0,0.0,94,0.00,,,0.00,meteohub,2014-01-17 10:57:00,
2014-01-17 06:02:00,22.8,21.4,29.82,North,7,0.0,0.0,94,0.00,,,0.00,meteohub,2014-01-17 11:02:00,
2014-01-17 06:07:00,23.0,21.7,29.82,North,7,0.0,0.0,95,0.00,,,0.00,meteohub,2014-01-17 11:07:00,
2014-01-17 06:12:00,23.0,21.6,29.82,North,8,0.0,0.0,94,0.00,,,0.00,meteohub,2014-01-17 11:12:00,
2014-01-17 06:17:00,23.0,21.6,29.82,North,7,0.0,0.0,94,0.00,,,0.00,meteohub,2014-01-17 11:17:00,
2014-01-17 06:22:00,23.0,21.6,29.82,North,7,0.0,0.0,94,0.00,,,0.00,meteohub,2014-01-17 11:22:00,
2014-01-17 06:27:00,23.0,21.6,29.82,North,7,0.0,0.0,94,0.00,,,0.00,meteohub,2014-01-17 11:27:00,
2014-01-17 06:32:00,22.8,21.4,29.82,North,7,0.0,0.0,94,0.00,,,0.00,meteohub,2014-01-17 11:32:00,
2014-01-17 06:37:00,23.0,21.6,29.82,North,7,0.0,0.0,94,0.00,,,0.00,meteohub,2014-01-17 11:37:00,
2014-01-17 06:42:00,22.8,21.4,29.82,North,8,0.0,0.0,94,0.00,,,0.00,meteohub,2014-01-17 11:42:00,
2014-01-17 06:47:00,22.8,21.4,29.82,North,7,0.0,0.0,94,0.00,,,0.00,meteohub,2014-01-17 11:47:00,
2014-01-17 06:52:00,22.6,21.2,29.82,North,7,0.0,0.0,94,0.00,,,0.00,meteohub,2014-01-17 11:52:00,
2014-01-17 06:57:00,22.5,21.0,29.82,North,8,0.0,0.0,94,0.00,,,0.00,meteohub,2014-01-17 11:57:00,
2014-01-17 07:02:00,22.5,21.0,29.82,North,8,0.0,0.0,94,0.00,,,0.00,meteohub,2014-01-17 12:02:00,
2014-01-17 07:07:00,22.6,21.2,29.82,North,7,0.0,0.0,94,0.00,,,0.00,meteohub,2014-01-17 12:07:00,
2014-01-17 07:12:00,22.8,21.4,29.82,North,8,0.0,0.0,94,0.00,,,0.00,meteohub,2014-01-17 12:12:00,
2014-01-17 07:17:00,22.8,21.4,29.82,North,8,0.0,0.0,94,0.00,,,0.00,meteohub,2014-01-17 12:17:00,
2014-01-17 07:22:00,22.8,21.0,29.82,North,7,0.0,0.0,93,0.00,,,0.00,meteohub,2014-01-17 12:22:00,
2014-01-17 07:27:00,22.8,21.0,29.82,North,8,0.0,0.0,93,0.00,,,0.00,meteohub,2014-01-17 12:27:00,
2014-01-17 07:32:00,23.0,21.2,29.82,North,7,0.0,0.0,93,0.00,,,0.00,meteohub,2014-01-17 12:32:00,
2014-01-17 07:37:00,23.2,21.4,29.82,North,8,0.0,0.0,93,0.00,,,0.00,meteohub,2014-01-17 12:37:00,
2014-01-17 07:42:00,23.2,21.4,29.82,North,8,0.0,0.0,93,0.00,,,0.00,meteohub,2014-01-17 12:42:00,
2014-01-17 07:47:00,23.5,21.7,29.82,North,7,3.0,0.0,93,0.00,,,0.00,meteohub,2014-01-17 12:47:00,
2014-01-17 07:52:00,23.7,21.9,29.82,North,7,0.0,3.0,93,0.00,,,0.00,meteohub,2014-01-17 12:52:00,
2014-01-17 07:57:00,23.7,21.9,29.82,North,7,0.0,3.0,93,0.00,,,0.00,meteohub,2014-01-17 12:57:00,
2014-01-17 08:02:00,23.7,21.9,29.82,North,7,0.0,4.0,93,0.00,,,0.00,meteohub,2014-01-17 13:02:00,
2014-01-17 08:07:00,23.9,22.1,29.81,North,7,0.0,4.0,93,0.00,,,0.00,meteohub,2014-01-17 13:07:00,
2014-01-17 08:12:00,24.4,22.6,29.81,North,7,0.0,3.0,93,0.00,,,0.00,meteohub,2014-01-17 13:12:00,
2014-01-17 08:17:00,24.6,22.8,29.81,North,7,0.0,0.0,93,0.00,,,0.00,meteohub,2014-01-17 13:17:00,
2014-01-17 08:22:00,25.2,23.4,29.81,North,7,2.0,0.0,93,0.00,,,0.00,meteohub,2014-01-17 13:22:00,
2014-01-17 08:27:00,25.5,23.7,29.81,North,8,0.0,2.0,93,0.00,,,0.00,meteohub,2014-01-17 13:27:00,
2014-01-17 08:32:00,26.4,24.6,29.81,North,8,0.0,2.0,93,0.00,,,0.00,meteohub,2014-01-17 13:32:00,
2014-01-17 08:37:00,27.7,26.2,29.81,North,7,3.0,3.0,94,0.00,,,0.00,meteohub,2014-01-17 13:37:00,
2014-01-17 08:42:00,28.6,26.8,29.81,North,8,0.0,3.0,93,0.00,,,0.00,meteohub,2014-01-17 13:42:00,
2014-01-17 08:47:00,29.7,28.2,29.81,North,8,0.0,3.0,94,0.00,,,0.00,meteohub,2014-01-17 13:47:00,
2014-01-17 08:52:00,30.4,28.6,29.80,North,7,0.0,3.0,93,0.00,,,0.00,meteohub,2014-01-17 13:52:00,
2014-01-17 08:57:00,30.6,28.8,29.80,North,7,0.0,2.0,93,0.00,,,0.00,meteohub,2014-01-17 13:57:00,
2014-01-17 09:02:00,30.4,28.4,29.80,East,83,0.0,0.0,92,0.00,,,0.00,meteohub,2014-01-17 14:02:00,
2014-01-17 09:07:00,31.1,28.8,29.80,SSE,149,3.0,4.0,91,0.00,,,0.00,meteohub,2014-01-17 14:07:00,
2014-01-17 09:12:00,32.2,29.7,29.80,SE,144,2.0,4.0,90,0.00,,,0.00,meteohub,2014-01-17 14:12:00,
2014-01-17 09:17:00,33.6,30.7,29.80,SSE,160,3.0,4.0,89,0.00,,,0.00,meteohub,2014-01-17 14:17:00,
2014-01-17 09:22:00,34.3,30.9,29.83,South,180,2.0,4.0,87,0.00,,,0.00,meteohub,2014-01-17 14:22:00,
2014-01-17 09:27:00,34.7,30.0,29.83,SSW,194,3.0,5.0,83,0.00,,,0.00,meteohub,2014-01-17 14:27:00,
2014-01-17 09:32:00,35.2,29.3,29.82,SE,145,4.0,5.0,79,0.00,,,0.00,meteohub,2014-01-17 14:32:00,
2014-01-17 09:37:00,35.4,28.9,29.82,South,191,2.0,5.0,77,0.00,,,0.00,meteohub,2014-01-17 14:37:00,
2014-01-17 09:42:00,35.6,27.1,29.82,SE,137,0.0,5.0,71,0.00,,,0.00,meteohub,2014-01-17 14:42:00,
2014-01-17 09:48:00,35.4,25.9,29.82,SSW,205,3.0,5.0,68,0.00,,,0.00,meteohub,2014-01-17 14:48:00,
2014-01-17 09:53:00,34.9,25.0,29.82,SSE,166,8.0,8.0,67,0.00,,,0.00,meteohub,2014-01-17 14:53:00,
2014-01-17 09:58:00,33.8,23.4,29.83,SSE,153,4.0,8.0,65,0.00,,,0.00,meteohub,2014-01-17 14:58:00,
2014-01-17 10:03:00,33.8,23.4,29.83,South,190,3.0,8.0,65,0.00,,,0.00,meteohub,2014-01-17 15:03:00,
2014-01-17 10:08:00,34.5,23.5,29.83,SW,229,3.0,8.0,64,0.00,,,0.00,meteohub,2014-01-17 15:08:00,
2014-01-17 10:13:00,34.5,23.2,29.83,SW,222,3.0,8.0,63,0.00,,,0.00,meteohub,2014-01-17 15:13:00,
2014-01-17 10:18:00,34.5,23.5,29.83,WSW,255,3.0,6.0,64,0.00,,,0.00,meteohub,2014-01-17 15:18:00,
2014-01-17 10:23:00,34.3,22.6,29.83,South,169,4.0,6.0,62,0.00,,,0.00,meteohub,2014-01-17 15:23:00,
2014-01-17 10:28:00,34.3,22.6,29.83,South,189,3.0,6.0,62,0.00,,,0.00,meteohub,2014-01-17 15:28:00,
2014-01-17 10:33:00,34.7,23.0,29.83,ESE,116,3.0,6.0,62,0.00,,,0.00,meteohub,2014-01-17 15:33:00,
2014-01-17 10:38:00,35.1,23.4,29.82,SW,215,3.0,6.0,62,0.00,,,0.00,meteohub,2014-01-17 15:38:00,
2014-01-17 10:43:00,35.8,23.7,29.82,SE,132,3.0,6.0,61,0.00,,,0.00,meteohub,2014-01-17 15:43:00,
2014-01-17 10:48:00,36.3,23.7,29.79,SW,216,0.0,6.0,60,0.00,,,0.00,meteohub,2014-01-17 15:48:00,
2014-01-17 10:54:00,36.3,23.0,29.79,SW,216,0.0,5.0,58,0.00,,,0.00,meteohub,2014-01-17 15:54:00,
2014-01-17 10:59:00,36.5,23.2,29.79,West,264,0.0,5.0,58,0.00,,,0.00,meteohub,2014-01-17 15:59:00,
2014-01-17 11:04:00,36.5,22.6,29.79,West,264,0.0,5.0,57,0.00,,,0.00,meteohub,2014-01-17 16:04:00,
2014-01-17 11:09:00,37.0,23.2,29.79,SE,142,4.0,4.0,57,0.00,,,0.00,meteohub,2014-01-17 16:09:00,
2014-01-17 11:14:00,37.6,22.8,29.79,South,191,3.0,4.0,55,0.00,,,0.00,meteohub,2014-01-17 16:14:00,
2014-01-17 11:19:00,37.9,22.8,29.79,South,175,0.0,5.0,54,0.00,,,0.00,meteohub,2014-01-17 16:19:00,
2014-01-17 11:24:00,38.1,22.5,29.79,West,265,3.0,6.0,53,0.00,,,0.00,meteohub,2014-01-17 16:24:00,
2014-01-17 11:29:00,38.1,22.1,29.79,SSW,207,0.0,6.0,52,0.00,,,0.00,meteohub,2014-01-17 16:29:00,
2014-01-17 11:34:00,37.9,21.0,29.79,SW,219,4.0,6.0,50,0.00,,,0.00,meteohub,2014-01-17 16:34:00,
2014-01-17 11:39:00,37.8,21.2,29.79,SSE,158,4.0,6.0,51,0.00,,,0.00,meteohub,2014-01-17 16:39:00,
2014-01-17 11:44:00,37.9,21.4,29.79,WSW,243,0.0,6.0,51,0.00,,,0.00,meteohub,2014-01-17 16:44:00,
2014-01-17 11:49:00,37.6,20.7,29.79,West,281,3.0,6.0,50,0.00,,,0.00,meteohub,2014-01-17 16:49:00,
2014-01-17 11:54:00,37.6,20.7,29.79,West,281,2.0,6.0,50,0.00,,,0.00,meteohub,2014-01-17 16:54:00,
2014-01-17 11:59:00,37.9,21.4,29.79,SE,129,0.0,5.0,51,0.00,,,0.00,meteohub,2014-01-17 16:59:00,
2014-01-17 12:05:00,37.8,21.2,29.76,WNW,282,3.0,5.0,51,0.00,,,0.00,meteohub,2014-01-17 17:05:00,
2014-01-17 12:10:00,37.9,21.4,29.76,West,281,0.0,4.0,51,0.00,,,0.00,meteohub,2014-01-17 17:10:00,
2014-01-17 12:15:00,38.5,21.9,29.76,WSW,245,0.0,4.0,51,0.00,,,0.00,meteohub,2014-01-17 17:15:00,
2014-01-17 12:20:00,39.0,22.5,29.75,SSE,157,5.0,5.0,51,0.00,,,0.00,meteohub,2014-01-17 17:20:00,
2014-01-17 12:25:00,39.0,21.9,29.75,WSW,238,4.0,6.0,50,0.00,,,0.00,meteohub,2014-01-17 17:25:00,
2014-01-17 12:30:00,39.0,21.6,29.75,SSE,151,5.0,6.0,49,0.00,,,0.00,meteohub,2014-01-17 17:30:00,
2014-01-17 12:35:00,39.2,21.6,29.75,South,189,4.0,8.0,49,0.00,,,0.00,meteohub,2014-01-17 17:35:00,
2014-01-17 12:40:00,39.7,21.2,29.75,SW,220,0.0,8.0,47,0.00,,,0.00,meteohub,2014-01-17 17:40:00,
2014-01-17 12:45:00,39.9,21.4,29.75,South,182,2.0,6.0,47,0.00,,,0.00,meteohub,2014-01-17 17:45:00,
2014-01-17 12:50:00,40.1,21.0,29.75,SSW,207,0.0,4.0,46,0.00,,,0.00,meteohub,2014-01-17 17:50:00,
2014-01-17 12:55:00,40.5,21.4,29.75,SSE,147,4.0,6.0,46,0.00,,,0.00,meteohub,2014-01-17 17:55:00,
2014-01-17 13:00:00,40.6,21.0,29.75,SSE,150,2.0,6.0,45,0.00,,,0.00,meteohub,2014-01-17 18:00:00,
2014-01-17 13:05:00,40.5,20.3,29.75,West,260,0.0,6.0,44,0.00,,,0.00,meteohub,2014-01-17 18:05:00,
2014-01-17 13:11:00,40.6,21.0,29.75,SSW,198,0.0,6.0,45,0.00,,,0.00,meteohub,2014-01-17 18:11:00,
2014-01-17 13:16:00,41.2,20.8,29.75,SE,124,4.0,6.0,44,0.00,,,0.00,meteohub,2014-01-17 18:16:00,
2014-01-17 13:21:00,41.2,20.8,29.75,ENE,70,3.0,6.0,44,0.00,,,0.00,meteohub,2014-01-17 18:21:00,
2014-01-17 13:26:00,40.6,20.5,29.75,WSW,242,5.0,6.0,44,0.00,,,0.00,meteohub,2014-01-17 18:26:00,
2014-01-17 13:31:00,40.1,19.9,29.75,WSW,258,0.0,6.0,44,0.00,,,0.00,meteohub,2014-01-17 18:31:00,
2014-01-17 13:36:00,39.9,19.8,29.75,South,190,2.0,6.0,44,0.00,,,0.00,meteohub,2014-01-17 18:36:00,
2014-01-17 13:41:00,39.9,20.3,29.75,SSE,156,0.0,6.0,45,0.00,,,0.00,meteohub,2014-01-17 18:41:00,
2014-01-17 13:46:00,39.9,20.3,29.75,WSW,253,2.0,5.0,45,0.00,,,0.00,meteohub,2014-01-17 18:46:00,
2014-01-17 13:51:00,39.7,20.1,29.75,SSW,204,3.0,6.0,45,0.00,,,0.00,meteohub,2014-01-17 18:51:00,
2014-01-17 13:56:00,39.7,20.7,29.75,SW,223,0.0,6.0,46,0.00,,,0.00,meteohub,2014-01-17 18:56:00,
2014-01-17 14:01:00,39.7,20.7,29.75,SSE,157,3.0,6.0,46,0.00,,,0.00,meteohub,2014-01-17 19:01:00,
2014-01-17 14:06:00,39.6,21.0,29.75,SE,126,0.0,6.0,47,0.00,,,0.00,meteohub,2014-01-17 19:06:00,
2014-01-17 14:11:00,39.2,21.2,29.75,WSW,247,3.0,6.0,48,0.00,,,0.00,meteohub,2014-01-17 19:11:00,
2014-01-17 14:16:00,39.0,21.6,29.75,SSE,148,3.0,8.0,49,0.00,,,0.00,meteohub,2014-01-17 19:16:00,
2014-01-17 14:22:00,39.0,21.9,29.75,SSW,197,2.0,8.0,50,0.00,,,0.00,meteohub,2014-01-17 19:22:00,
2014-01-17 14:27:00,39.0,21.9,29.75,SSE,161,3.0,5.0,50,0.00,,,0.00,meteohub,2014-01-17 19:27:00,
2014-01-17 14:32:00,39.0,21.9,29.75,SSW,200,3.0,4.0,50,0.00,,,0.00,meteohub,2014-01-17 19:32:00,
2014-01-17 14:37:00,39.0,22.5,29.75,SW,225,4.0,6.0,51,0.00,,,0.00,meteohub,2014-01-17 19:37:00,
2014-01-17 14:42:00,39.0,21.9,29.75,SSW,204,2.0,6.0,50,0.00,,,0.00,meteohub,2014-01-17 19:42:00,
2014-01-17 14:47:00,39.0,21.9,29.75,SSE,162,3.0,6.0,50,0.00,,,0.00,meteohub,2014-01-17 19:47:00,
2014-01-17 14:52:00,39.0,21.9,29.75,SE,140,0.0,6.0,50,0.00,,,0.00,meteohub,2014-01-17 19:52:00,
2014-01-17 14:57:00,39.0,21.9,29.75,SW,224,3.0,6.0,50,0.00,,,0.00,meteohub,2014-01-17 19:57:00,
2014-01-17 15:02:00,38.8,21.7,29.75,SW,224,0.0,6.0,50,0.00,,,0.00,meteohub,2014-01-17 20:02:00,
2014-01-17 15:07:00,38.7,21.6,29.75,SW,224,3.0,5.0,50,0.00,,,0.00,meteohub,2014-01-17 20:07:00,
2014-01-17 15:12:00,38.5,21.4,29.76,SSE,149,0.0,4.0,50,0.00,,,0.00,meteohub,2014-01-17 20:12:00,
2014-01-17 15:17:00,38.7,22.1,29.75,SSE,149,0.0,4.0,51,0.00,,,0.00,meteohub,2014-01-17 20:17:00,
2014-01-17 15:22:00,38.7,21.6,29.75,SSE,162,3.0,5.0,50,0.00,,,0.00,meteohub,2014-01-17 20:22:00,
2014-01-17 15:27:00,38.7,21.6,29.75,SSE,158,0.0,5.0,50,0.00,,,0.00,meteohub,2014-01-17 20:27:00,
2014-01-17 15:32:00,38.5,21.4,29.76,South,187,0.0,6.0,50,0.00,,,0.00,meteohub,2014-01-17 20:32:00,
2014-01-17 15:37:00,38.5,21.4,29.76,South,187,0.0,6.0,50,0.00,,,0.00,meteohub,2014-01-17 20:37:00,
2014-01-17 15:42:00,38.5,21.4,29.76,South,191,3.0,6.0,50,0.00,,,0.00,meteohub,2014-01-17 20:42:00,
2014-01-17 15:47:00,38.3,21.2,29.76,South,189,2.0,6.0,50,0.00,,,0.00,meteohub,2014-01-17 20:47:00,
2014-01-17 15:52:00,38.1,21.2,29.76,South,189,0.0,6.0,50,0.00,,,0.00,meteohub,2014-01-17 20:52:00,
2014-01-17 15:57:00,37.9,21.0,29.76,SSW,192,0.0,6.0,50,0.00,,,0.00,meteohub,2014-01-17 20:57:00,
2014-01-17 16:02:00,37.8,20.8,29.76,South,172,0.0,4.0,50,0.00,,,0.00,meteohub,2014-01-17 21:02:00,
2014-01-17 16:07:00,37.6,20.7,29.76,South,172,0.0,4.0,50,0.00,,,0.00,meteohub,2014-01-17 21:07:00,
2014-01-17 16:12:00,37.4,20.5,29.76,South,177,0.0,4.0,50,0.00,,,0.00,meteohub,2014-01-17 21:12:00,
2014-01-17 16:17:00,37.2,20.8,29.76,SSE,160,0.0,5.0,51,0.00,,,0.00,meteohub,2014-01-17 21:17:00,
2014-01-17 16:22:00,37.0,20.7,29.76,SSE,160,2.0,5.0,51,0.00,,,0.00,meteohub,2014-01-17 21:22:00,
2014-01-17 16:27:00,36.9,20.5,29.76,SSW,200,3.0,4.0,51,0.00,,,0.00,meteohub,2014-01-17 21:27:00,
2014-01-17 16:32:00,36.7,20.3,29.76,SSE,162,3.0,4.0,51,0.00,,,0.00,meteohub,2014-01-17 21:32:00,
2014-01-17 16:37:00,36.5,20.1,29.76,South,170,0.0,4.0,51,0.00,,,0.00,meteohub,2014-01-17 21:37:00,
2014-01-17 16:42:00,36.3,19.9,29.76,South,170,3.0,4.0,51,0.00,,,0.00,meteohub,2014-01-17 21:42:00,
2014-01-17 16:47:00,36.0,20.1,29.76,South,180,4.0,4.0,52,0.00,,,0.00,meteohub,2014-01-17 21:47:00,
2014-01-17 16:52:00,35.8,19.9,29.76,South,180,0.0,4.0,52,0.00,,,0.00,meteohub,2014-01-17 21:52:00,
2014-01-17 16:57:00,35.6,19.8,29.76,South,180,0.0,4.0,52,0.00,,,0.00,meteohub,2014-01-17 21:57:00,
2014-01-17 17:02:00,35.2,19.8,29.76,South,180,0.0,4.0,53,0.00,,,0.00,meteohub,2014-01-17 22:02:00,
2014-01-17 17:07:00,35.1,19.6,29.76,South,180,0.0,0.0,53,0.00,,,0.00,meteohub,2014-01-17 22:07:00,
2014-01-17 17:12:00,34.9,19.4,29.76,South,180,0.0,0.0,53,0.00,,,0.00,meteohub,2014-01-17 22:12:00,
2014-01-17 17:17:00,34.7,19.8,29.76,South,180,0.0,0.0,54,0.00,,,0.00,meteohub,2014-01-17 22:17:00,
2014-01-17 17:22:00,34.5,19.6,29.76,South,180,0.0,0.0,54,0.00,,,0.00,meteohub,2014-01-17 22:22:00,
2014-01-17 17:27:00,34.5,19.9,29.76,South,180,0.0,0.0,55,0.00,,,0.00,meteohub,2014-01-17 22:27:00,
2014-01-17 17:32:00,34.3,19.8,29.76,South,180,0.0,0.0,55,0.00,,,0.00,meteohub,2014-01-17 22:32:00,
2014-01-17 17:37:00,34.2,20.1,29.76,South,180,0.0,0.0,56,0.00,,,0.00,meteohub,2014-01-17 22:37:00,
2014-01-17 17:42:00,34.0,20.3,29.76,South,180,0.0,0.0,57,0.00,,,0.00,meteohub,2014-01-17 22:42:00,
2014-01-17 17:47:00,33.8,20.1,29.77,South,180,0.0,0.0,57,0.00,,,0.00,meteohub,2014-01-17 22:47:00,
2014-01-17 17:52:00,33.6,20.8,29.77,South,180,0.0,0.0,59,0.00,,,0.00,meteohub,2014-01-17 22:52:00,
2014-01-17 17:57:00,33.4,20.7,29.77,South,180,0.0,0.0,59,0.00,,,0.00,meteohub,2014-01-17 22:57:00,
2014-01-17 18:02:00,33.3,20.5,29.77,South,180,0.0,0.0,59,0.00,,,0.00,meteohub,2014-01-17 23:02:00,
2014-01-17 18:07:00,33.1,20.3,29.77,South,180,0.0,0.0,59,0.00,,,0.00,meteohub,2014-01-17 23:07:00,
2014-01-17 18:12:00,32.9,20.1,29.77,South,180,0.0,0.0,59,0.00,,,0.00,meteohub,2014-01-17 23:12:00,
2014-01-17 18:17:00,32.9,20.5,29.77,South,180,0.0,0.0,60,0.00,,,0.00,meteohub,2014-01-17 23:17:00,
2014-01-17 18:22:00,32.7,20.3,29.80,South,180,0.0,0.0,60,0.00,,,0.00,meteohub,2014-01-17 23:22:00,
2014-01-17 18:27:00,32.5,20.1,29.80,South,180,0.0,0.0,60,0.00,,,0.00,meteohub,2014-01-17 23:27:00,
2014-01-17 18:32:00,32.4,20.5,29.80,South,180,0.0,0.0,61,0.00,,,0.00,meteohub,2014-01-17 23:32:00,
2014-01-17 18:37:00,32.0,20.1,29.80,South,180,0.0,0.0,61,0.00,,,0.00,meteohub,2014-01-17 23:37:00,
2014-01-17 18:42:00,31.6,19.8,29.80,South,180,0.0,0.0,61,0.00,,,0.00,meteohub,2014-01-17 23:42:00,
2014-01-17 18:47:00,31.5,19.9,29.80,South,180,0.0,0.0,62,0.00,,,0.00,meteohub,2014-01-17 23:47:00,
2014-01-17 18:52:00,31.5,19.9,29.80,South,180,0.0,0.0,62,0.00,,,0.00,meteohub,2014-01-17 23:52:00,
2014-01-17 18:57:00,31.3,20.1,29.80,South,180,0.0,0.0,63,0.00,,,0.00,meteohub,2014-01-17 23:57:00,
2014-01-17 19:02:00,31.1,19.9,29.80,South,180,0.0,0.0,63,0.00,,,0.00,meteohub,2014-01-18 00:02:00,
2014-01-17 19:07:00,31.5,20.7,29.80,South,180,0.0,0.0,64,0.00,,,0.00,meteohub,2014-01-18 00:07:00,
2014-01-17 19:12:00,31.8,21.4,29.80,South,180,0.0,0.0,65,0.00,,,0.00,meteohub,2014-01-18 00:12:00,
2014-01-17 19:17:00,31.6,21.2,29.80,South,180,0.0,0.0,65,0.00,,,0.00,meteohub,2014-01-18 00:17:00,
2014-01-17 19:22:00,31.6,21.2,29.77,South,180,0.0,0.0,65,0.00,,,0.00,meteohub,2014-01-18 00:22:00,
2014-01-17 19:27:00,31.8,21.7,29.77,South,180,0.0,0.0,66,0.00,,,0.00,meteohub,2014-01-18 00:27:00,
2014-01-17 19:32:00,32.0,22.3,29.77,South,180,0.0,0.0,67,0.00,,,0.00,meteohub,2014-01-18 00:32:00,
2014-01-17 19:37:00,31.8,22.5,29.80,South,180,0.0,0.0,68,0.00,,,0.00,meteohub,2014-01-18 00:37:00,
2014-01-17 19:42:00,31.6,22.3,29.80,South,180,0.0,0.0,68,0.00,,,0.00,meteohub,2014-01-18 00:42:00,
2014-01-17 19:47:00,31.5,21.7,29.80,South,180,0.0,0.0,67,0.00,,,0.00,meteohub,2014-01-18 00:47:00,
2014-01-17 19:52:00,31.1,21.7,29.80,South,180,0.0,0.0,68,0.00,,,0.00,meteohub,2014-01-18 00:52:00,
2014-01-17 19:57:00,30.9,21.6,29.80,South,180,0.0,0.0,68,0.00,,,0.00,meteohub,2014-01-18 00:57:00,
2014-01-17 20:02:00,30.9,21.6,29.80,South,180,0.0,0.0,68,0.00,,,0.00,meteohub,2014-01-18 01:02:00,
2014-01-17 20:07:00,30.7,21.4,29.80,South,180,0.0,0.0,68,0.00,,,0.00,meteohub,2014-01-18 01:07:00,
2014-01-17 20:12:00,30.9,22.3,29.80,South,180,0.0,0.0,70,0.00,,,0.00,meteohub,2014-01-18 01:12:00,
2014-01-17 20:17:00,31.1,22.8,29.80,South,180,0.0,0.0,71,0.00,,,0.00,meteohub,2014-01-18 01:17:00,
2014-01-17 20:22:00,31.1,23.2,29.80,South,180,0.0,0.0,72,0.00,,,0.00,meteohub,2014-01-18 01:22:00,
2014-01-17 20:27:00,30.9,23.0,29.80,South,180,0.0,0.0,72,0.00,,,0.00,meteohub,2014-01-18 01:27:00,
2014-01-17 20:32:00,30.6,22.6,29.80,South,180,0.0,0.0,72,0.00,,,0.00,meteohub,2014-01-18 01:32:00,
2014-01-17 20:37:00,30.6,22.6,29.80,South,180,0.0,0.0,72,0.00,,,0.00,meteohub,2014-01-18 01:37:00,
2014-01-17 20:42:00,30.4,22.5,29.80,South,180,0.0,0.0,72,0.00,,,0.00,meteohub,2014-01-18 01:42:00,
2014-01-17 20:47:00,30.4,22.5,29.80,South,180,0.0,0.0,72,0.00,,,0.00,meteohub,2014-01-18 01:47:00,
2014-01-17 20:52:00,30.4,22.5,29.77,South,180,0.0,0.0,72,0.00,,,0.00,meteohub,2014-01-18 01:52:00,
2014-01-17 20:57:00,30.6,23.0,29.77,South,180,0.0,0.0,73,0.00,,,0.00,meteohub,2014-01-18 01:57:00,
2014-01-17 21:02:00,30.7,23.2,29.77,South,180,0.0,0.0,73,0.00,,,0.00,meteohub,2014-01-18 02:02:00,
2014-01-17 21:07:00,30.6,23.0,29.80,South,180,0.0,0.0,73,0.00,,,0.00,meteohub,2014-01-18 02:07:00,
2014-01-17 21:12:00,30.6,23.2,29.80,South,180,0.0,0.0,74,0.00,,,0.00,meteohub,2014-01-18 02:12:00,
2014-01-17 21:17:00,30.6,23.2,29.80,South,180,0.0,0.0,74,0.00,,,0.00,meteohub,2014-01-18 02:17:00,
2014-01-17 21:23:00,30.6,23.2,29.77,South,180,0.0,0.0,74,0.00,,,0.00,meteohub,2014-01-18 02:23:00,
2014-01-17 21:28:00,30.6,23.2,29.77,South,180,0.0,0.0,74,0.00,,,0.00,meteohub,2014-01-18 02:28:00,
2014-01-17 21:33:00,30.4,23.2,29.80,South,180,0.0,0.0,74,0.00,,,0.00,meteohub,2014-01-18 02:33:00,
2014-01-17 21:38:00,30.2,23.2,29.80,South,180,0.0,0.0,75,0.00,,,0.00,meteohub,2014-01-18 02:38:00,
2014-01-17 21:43:00,30.0,23.0,29.80,South,180,0.0,0.0,75,0.00,,,0.00,meteohub,2014-01-18 02:43:00,
2014-01-17 21:48:00,29.8,22.8,29.77,South,180,0.0,0.0,75,0.00,,,0.00,meteohub,2014-01-18 02:48:00,
2014-01-17 21:53:00,29.8,22.8,29.77,South,180,0.0,0.0,75,0.00,,,0.00,meteohub,2014-01-18 02:53:00,
2014-01-17 21:58:00,30.0,23.4,29.77,South,180,2.0,0.0,76,0.00,,,0.00,meteohub,2014-01-18 02:58:00,
2014-01-17 22:03:00,30.4,23.7,29.77,South,180,0.0,0.0,76,0.00,,,0.00,meteohub,2014-01-18 03:03:00,
2014-01-17 22:08:00,30.4,24.1,29.77,South,180,2.0,4.0,77,0.00,,,0.00,meteohub,2014-01-18 03:08:00,
2014-01-17 22:13:00,30.2,23.9,29.77,South,180,0.0,4.0,77,0.00,,,0.00,meteohub,2014-01-18 03:13:00,
2014-01-17 22:18:00,30.2,23.9,29.77,South,180,0.0,3.0,77,0.00,,,0.00,meteohub,2014-01-18 03:18:00,
2014-01-17 22:23:00,30.2,23.9,29.77,South,180,0.0,2.0,77,0.00,,,0.00,meteohub,2014-01-18 03:23:00,
2014-01-17 22:29:00,30.2,23.9,29.77,South,180,0.0,0.0,77,0.00,,,0.00,meteohub,2014-01-18 03:29:00,
2014-01-17 22:34:00,30.0,23.7,29.77,South,180,0.0,0.0,77,0.00,,,0.00,meteohub,2014-01-18 03:34:00,
2014-01-17 22:39:00,29.8,23.9,29.77,South,180,0.0,0.0,78,0.00,,,0.00,meteohub,2014-01-18 03:39:00,
2014-01-17 22:44:00,29.8,23.9,29.77,South,180,0.0,0.0,78,0.00,,,0.00,meteohub,2014-01-18 03:44:00,
2014-01-17 22:49:00,29.8,23.9,29.77,South,180,0.0,0.0,78,0.00,,,0.00,meteohub,2014-01-18 03:49:00,
2014-01-17 22:54:00,30.0,24.1,29.77,South,180,0.0,0.0,78,0.00,,,0.00,meteohub,2014-01-18 03:54:00,
2014-01-17 22:59:00,30.0,24.1,29.77,South,180,0.0,0.0,78,0.00,,,0.00,meteohub,2014-01-18 03:59:00,
2014-01-17 23:04:00,30.0,24.3,29.77,South,180,0.0,0.0,79,0.00,,,0.00,meteohub,2014-01-18 04:04:00,
2014-01-17 23:09:00,30.0,24.3,29.77,South,180,0.0,0.0,79,0.00,,,0.00,meteohub,2014-01-18 04:09:00,
2014-01-17 23:14:00,29.8,24.1,29.77,South,180,0.0,0.0,79,0.00,,,0.00,meteohub,2014-01-18 04:14:00,
2014-01-17 23:19:00,29.8,24.1,29.74,South,180,0.0,0.0,79,0.00,,,0.00,meteohub,2014-01-18 04:19:00,
2014-01-17 23:24:00,29.8,24.1,29.74,South,180,0.0,0.0,79,0.00,,,0.00,meteohub,2014-01-18 04:24:00,
2014-01-17 23:29:00,29.8,24.1,29.74,South,180,0.0,0.0,79,0.00,,,0.00,meteohub,2014-01-18 04:29:00,
2014-01-17 23:35:00,29.8,24.1,29.74,South,180,0.0,0.0,79,0.00,,,0.00,meteohub,2014-01-18 04:35:00,
2014-01-17 23:40:00,29.8,24.4,29.74,South,180,0.0,0.0,80,0.00,,,0.00,meteohub,2014-01-18 04:40:00,
2014-01-17 23:45:00,29.7,24.3,29.74,South,180,0.0,0.0,80,0.00,,,0.00,meteohub,2014-01-18 04:45:00,
2014-01-17 23:50:00,29.7,24.3,29.74,South,180,0.0,0.0,80,0.00,,,0.00,meteohub,2014-01-18 04:50:00,
2014-01-17 23:55:00,29.8,24.4,29.74,South,180,2.0,0.0,80,0.00,,,0.00,meteohub,2014-01-18 04:55:00,